Time;durP1;ratioP1;P1;durP2;ratioP2;P2;SDS_P1;SDS_P2;PMS_P1;PMS_P2;Temp;Humidity;BMP_temperature;BMP_pressure;BME280_temperature;BME280_humidity;BME280_pressure;Samples;Min_cycle;Max_cycle;Signal;HPM_P1;HPM_P2
2022/08/08 00:02:17;;;;;;;6.13;3.35;;;;;;;-143.85;100.00;70650.75;5091318;28;20088;-81
2022/08/08 00:05:15;;;;;;;5.47;3.42;;;;;;;-143.85;100.00;70650.75;5091572;28;20023;-81
2022/08/08 00:08:03;;;;;;;5.32;2.88;;;;;;;-143.85;100.00;70650.75;5090884;28;20028;-80
2022/08/08 00:10:40;;;;;;;4.85;3.15;;;;;;;-143.85;100.00;70650.75;5090747;28;20049;-81
2022/08/08 00:13:24;;;;;;;5.23;3.30;;;;;;;-143.85;100.00;70650.75;5092763;28;20024;-81
2022/08/08 00:16:06;;;;;;;6.30;3.88;;;;;;;-143.85;100.00;70650.75;5091670;28;20030;-80
2022/08/08 00:18:46;;;;;;;6.18;3.70;;;;;;;-143.85;100.00;70650.75;5091355;28;20028;-81
2022/08/08 00:21:17;;;;;;;7.18;3.42;;;;;;;-143.85;100.00;70650.75;5091169;28;20502;-80
2022/08/08 00:23:49;;;;;;;8.77;3.50;;;;;;;-143.85;100.00;70650.75;5091172;28;20023;-81
2022/08/08 00:26:26;;;;;;;5.00;3.13;;;;;;;-143.85;100.00;70650.75;5091012;28;20020;-80
2022/08/08 00:28:57;;;;;;;6.07;3.90;;;;;;;-143.85;100.00;70650.75;5091302;28;20463;-81
2022/08/08 00:31:31;;;;;;;4.55;3.55;;;;;;;-143.85;100.00;70650.75;5091125;28;20020;-80
2022/08/08 00:37:26;;;;;;;4.90;2.90;;;;;;;-143.85;100.00;70650.75;5092177;28;20054;-80
2022/08/08 00:40:26;;;;;;;5.97;3.47;;;;;;;-143.85;100.00;70650.75;5090968;28;20483;-80
2022/08/08 00:42:57;;;;;;;6.75;3.88;;;;;;;-143.85;100.00;70650.75;5090775;28;20028;-81
2022/08/08 00:45:28;;;;;;;5.55;3.70;;;;;;;-143.85;100.00;70650.75;5091191;28;20028;-79
2022/08/08 00:48:36;;;;;;;4.38;3.00;;;;;;;-143.85;100.00;70650.75;5092448;28;20048;-80
2022/08/08 00:51:29;;;;;;;3.78;3.08;;;;;;;-143.85;100.00;70650.75;5090846;28;20039;-80
2022/08/08 00:54:07;;;;;;;4.05;2.53;;;;;;;-143.85;100.00;70650.75;5092209;28;20035;-80
2022/08/08 00:56:45;;;;;;;4.28;3.35;;;;;;;-143.85;100.00;70650.75;5090797;28;20040;-80
2022/08/08 00:59:16;;;;;;;5.55;3.90;;;;;;;-143.85;100.00;70650.75;5091084;28;20024;-79
2022/08/08 01:02:17;;;;;;;5.68;3.03;;;;;;;-143.85;100.00;70650.75;5091158;28;20092;-80
2022/08/08 01:05:19;;;;;;;7.22;3.33;;;;;;;-143.85;100.00;70650.75;5010254;28;20061;-80
2022/08/08 01:08:06;;;;;;;7.10;4.22;;;;;;;-143.85;100.00;70650.75;5091070;28;20380;-80
2022/08/08 01:10:50;;;;;;;6.63;4.17;;;;;;;-143.85;100.00;70650.75;5091991;28;20130;-80
2022/08/08 01:13:31;;;;;;;4.25;3.08;;;;;;;-143.85;100.00;70650.75;5090712;28;20498;-80
2022/08/08 01:16:34;;;;;;;6.15;3.58;;;;;;;-143.85;100.00;70650.75;5091770;28;20379;-80
2022/08/08 01:19:54;;;;;;;4.88;4.18;;;;;;;-143.85;100.00;70650.75;5090543;28;20050;-80
2022/08/08 01:23:04;;;;;;;5.60;3.20;;;;;;;-143.85;100.00;70650.75;5013395;28;20449;-80
2022/08/08 01:26:02;;;;;;;8.10;4.57;;;;;;;-143.85;100.00;70650.75;5055820;28;20117;-81
2022/08/08 01:28:55;;;;;;;5.68;4.05;;;;;;;-143.85;100.00;70650.75;5095790;28;20024;-79
2022/08/08 01:31:39;;;;;;;5.45;3.58;;;;;;;-143.85;100.00;70650.75;5093970;28;20387;-80
2022/08/08 01:34:20;;;;;;;5.43;3.15;;;;;;;-143.85;100.00;70650.75;5093756;28;20486;-81
2022/08/08 01:36:57;;;;;;;6.38;3.35;;;;;;;-143.85;100.00;70650.75;5095370;28;20024;-80
2022/08/08 01:39:26;;;;;;;11.98;3.50;;;;;;;-143.85;100.00;70650.75;5094210;28;20024;-79
2022/08/08 01:42:14;;;;;;;7.78;4.03;;;;;;;-143.85;100.00;70650.75;5093677;28;20059;-80
2022/08/08 01:44:58;;;;;;;9.23;3.75;;;;;;;-143.85;100.00;70650.75;5094255;28;20016;-81
2022/08/08 01:47:41;;;;;;;5.68;3.63;;;;;;;-143.85;100.00;70650.75;5094804;28;20071;-80
2022/08/08 01:50:40;;;;;;;4.82;3.22;;;;;;;-143.85;100.00;70650.75;5095086;28;20468;-80
2022/08/08 01:53:44;;;;;;;9.70;3.70;;;;;;;-143.85;100.00;70650.75;5094286;28;20032;-82
2022/08/08 01:56:38;;;;;;;5.03;3.47;;;;;;;-143.85;100.00;70650.75;5070123;28;20516;-80
2022/08/08 01:59:37;;;;;;;7.85;3.58;;;;;;;-143.85;100.00;70650.75;5093251;28;20042;-80
2022/08/08 02:02:06;;;;;;;7.35;3.85;;;;;;;-143.85;100.00;70650.75;5093649;28;20094;-80
2022/08/08 02:04:41;;;;;;;5.72;3.70;;;;;;;-143.85;100.00;70650.75;5093167;28;20057;-80
2022/08/08 02:07:42;;;;;;;7.05;4.15;;;;;;;-143.85;100.00;70650.75;5093322;28;20024;-81
2022/08/08 02:10:16;;;;;;;6.13;3.80;;;;;;;-143.85;100.00;70650.75;5093315;28;20054;-80
2022/08/08 02:12:41;;;;;;;5.68;3.45;;;;;;;-143.85;100.00;70650.75;5093529;28;20039;-81
2022/08/08 02:15:15;;;;;;;4.53;3.05;;;;;;;-143.85;100.00;70650.75;5093015;28;20020;-81
2022/08/08 02:17:59;;;;;;;6.85;4.05;;;;;;;-143.85;100.00;70650.75;5093137;28;20114;-80
2022/08/08 02:20:36;;;;;;;4.60;3.38;;;;;;;-143.85;100.00;70650.75;5094498;28;20101;-80
2022/08/08 02:23:24;;;;;;;7.20;4.15;;;;;;;-143.85;100.00;70650.75;5093332;28;20077;-80
2022/08/08 02:25:59;;;;;;;4.97;3.20;;;;;;;-143.85;100.00;70650.75;5092880;28;20114;-81
2022/08/08 02:28:46;;;;;;;5.82;3.42;;;;;;;-143.85;100.00;70650.75;5092877;28;20107;-80
2022/08/08 02:31:36;;;;;;;5.93;3.40;;;;;;;-143.85;100.00;70650.75;5093132;28;20024;-80
2022/08/08 02:34:08;;;;;;;5.50;3.53;;;;;;;-143.85;100.00;70650.75;5092478;28;20084;-81
2022/08/08 02:36:36;;;;;;;5.57;4.25;;;;;;;-143.85;100.00;70650.75;5094225;28;20055;-81
2022/08/08 02:39:44;;;;;;;7.78;4.65;;;;;;;-143.85;100.00;70650.75;5093944;28;20380;-81
2022/08/08 02:42:47;;;;;;;5.75;4.07;;;;;;;-143.85;100.00;70650.75;5092701;28;20023;-80
2022/08/08 02:45:42;;;;;;;6.53;4.00;;;;;;;-143.85;100.00;70650.75;5092522;28;20078;-81
2022/08/08 02:48:23;;;;;;;5.93;4.05;;;;;;;-143.85;100.00;70650.75;5093557;28;20094;-81
2022/08/08 02:51:03;;;;;;;5.88;3.80;;;;;;;-143.85;100.00;70650.75;5092516;28;20024;-80
2022/08/08 02:53:53;;;;;;;6.82;3.38;;;;;;;-143.85;100.00;70650.75;5092118;28;20028;-80
2022/08/08 02:56:24;;;;;;;7.07;4.10;;;;;;;-143.85;100.00;70650.75;5092269;28;20020;-79
2022/08/08 03:00:01;;;;;;;5.45;3.38;;;;;;;-143.85;100.00;70650.75;5092300;28;20051;-80
2022/08/08 03:02:57;;;;;;;6.68;3.40;;;;;;;-143.85;100.00;70650.75;4979371;28;20029;-79
2022/08/08 03:05:44;;;;;;;6.97;3.92;;;;;;;-143.85;100.00;70650.75;4994918;28;20034;-79
2022/08/08 03:08:34;;;;;;;7.30;4.13;;;;;;;-143.85;100.00;70650.75;5093669;28;20415;-80
2022/08/08 03:11:19;;;;;;;6.45;4.05;;;;;;;-143.85;100.00;70650.75;5092092;28;20110;-80
2022/08/08 03:14:18;;;;;;;5.93;3.33;;;;;;;-143.85;100.00;70650.75;5092087;28;20028;-80
2022/08/08 03:16:48;;;;;;;3.85;3.28;;;;;;;-143.85;100.00;70650.75;5093489;28;20043;-80
2022/08/08 03:19:50;;;;;;;7.25;4.40;;;;;;;-143.85;100.00;70650.75;5074999;28;20020;-80
2022/08/08 03:22:15;;;;;;;7.03;3.55;;;;;;;-143.85;100.00;70650.75;5091794;28;20391;-79
2022/08/08 03:24:41;;;;;;;8.03;3.90;;;;;;;-143.85;100.00;70650.75;5091849;28;20028;-80
2022/08/08 03:27:19;;;;;;;4.40;3.25;;;;;;;-143.85;100.00;70650.75;5093112;28;20484;-79
2022/08/08 03:29:48;;;;;;;;;;;;;;;-143.85;100.00;70650.75;5093879;28;20028;-80
2022/08/08 03:34:57;;;;;;;5.13;2.88;;;;;;;-143.85;100.00;70650.75;5092991;28;20031;-81
2022/08/08 03:37:23;;;;;;;3.70;2.80;;;;;;;-143.85;100.00;70650.75;5092041;28;20028;-81
2022/08/08 03:39:48;;;;;;;8.73;3.17;;;;;;;-143.85;100.00;70650.75;5091628;28;20145;-80
2022/08/08 03:42:17;;;;;;;4.43;2.83;;;;;;;-143.85;100.00;70650.75;5090955;28;20392;-80
2022/08/08 03:44:43;;;;;;;4.03;3.10;;;;;;;-143.85;100.00;70650.75;5091514;28;20023;-80
2022/08/08 03:47:09;;;;;;;6.15;3.00;;;;;;;-143.85;100.00;70650.75;5091253;28;20383;-79
2022/08/08 03:49:34;;;;;;;4.60;2.65;;;;;;;-143.85;100.00;70650.75;5091393;28;20031;-80
2022/08/08 03:52:00;;;;;;;4.63;3.28;;;;;;;-143.85;100.00;70650.75;5091431;28;20364;-80
2022/08/08 03:54:26;;;;;;;4.88;3.35;;;;;;;-143.85;100.00;70650.75;5091298;28;20016;-81
2022/08/08 03:56:52;;;;;;;4.90;3.35;;;;;;;-143.85;100.00;70650.75;5091626;28;20046;-79
2022/08/08 03:59:17;;;;;;;4.47;2.95;;;;;;;-143.85;100.00;70650.75;5091052;28;20472;-80
2022/08/08 04:01:43;;;;;;;4.35;3.03;;;;;;;-143.85;100.00;70650.75;5091350;28;20027;-80
2022/08/08 04:04:09;;;;;;;5.45;3.40;;;;;;;-143.85;100.00;70650.75;5091208;28;20034;-80
2022/08/08 04:06:35;;;;;;;4.50;3.17;;;;;;;-143.85;100.00;70650.75;5091243;28;20024;-81
2022/08/08 04:09:05;;;;;;;4.88;3.63;;;;;;;-143.85;100.00;70650.75;5091627;28;20020;-79
2022/08/08 04:11:31;;;;;;;4.22;3.47;;;;;;;-143.85;100.00;70650.75;5091104;28;20020;-79
2022/08/08 04:13:57;;;;;;;4.05;2.88;;;;;;;-143.85;100.00;70650.75;5091341;28;20065;-80
2022/08/08 04:16:22;;;;;;;3.85;2.75;;;;;;;-143.85;100.00;70650.75;5091143;28;20020;-79
2022/08/08 04:18:48;;;;;;;5.00;3.05;;;;;;;-143.85;100.00;70650.75;5090814;28;20035;-79
2022/08/08 04:21:15;;;;;;;8.77;3.50;;;;;;;-143.85;100.00;70650.75;5091085;28;20020;-79
2022/08/08 04:23:40;;;;;;;4.82;2.90;;;;;;;-143.85;100.00;70650.75;5091295;28;20027;-79
2022/08/08 04:26:06;;;;;;;6.03;3.47;;;;;;;-143.85;100.00;70650.75;5091055;28;20403;-80
2022/08/08 04:28:32;;;;;;;4.00;3.10;;;;;;;-143.85;100.00;70650.75;5091003;28;20031;-79
2022/08/08 04:30:57;;;;;;;3.63;2.58;;;;;;;-143.85;100.00;70650.75;5092360;28;20111;-80
2022/08/08 04:33:23;;;;;;;4.07;3.17;;;;;;;-143.85;100.00;70650.75;5090778;28;20467;-79
2022/08/08 04:35:48;;;;;;;5.32;3.42;;;;;;;-143.85;100.00;70650.75;5090920;28;20020;-80
2022/08/08 04:38:14;;;;;;;4.97;3.03;;;;;;;-143.85;100.00;70650.75;5090965;28;20020;-80
2022/08/08 04:40:40;;;;;;;4.18;3.58;;;;;;;-143.85;100.00;70650.75;5091087;28;20028;-81
2022/08/08 04:43:05;;;;;;;4.25;2.85;;;;;;;-143.85;100.00;70650.75;5090992;28;20012;-82
2022/08/08 04:45:31;;;;;;;5.30;2.97;;;;;;;-143.85;100.00;70650.75;5090914;28;20518;-80
2022/08/08 04:47:57;;;;;;;5.03;3.20;;;;;;;-143.85;100.00;70650.75;5092152;28;20408;-80
2022/08/08 04:50:23;;;;;;;4.50;2.78;;;;;;;-143.85;100.00;70650.75;5090839;28;20024;-80
2022/08/08 04:52:48;;;;;;;3.75;2.40;;;;;;;-143.85;100.00;70650.75;5091003;28;20050;-81
2022/08/08 04:55:14;;;;;;;7.80;3.42;;;;;;;-143.85;100.00;70650.75;5094183;28;20523;-79
2022/08/08 04:57:39;;;;;;;3.58;2.78;;;;;;;-143.85;100.00;70650.75;5094716;28;20472;-79
2022/08/08 05:00:06;;;;;;;4.57;2.83;;;;;;;-143.85;100.00;70650.75;5094488;28;20494;-80
2022/08/08 05:02:32;;;;;;;2.85;2.40;;;;;;;-143.85;100.00;70650.75;5095038;28;20024;-79
2022/08/08 05:04:58;;;;;;;4.88;2.83;;;;;;;-143.85;100.00;70650.75;5094487;28;20424;-80
2022/08/08 05:07:23;;;;;;;2.75;1.92;;;;;;;-143.85;100.00;70650.75;5094588;28;20020;-79
2022/08/08 05:09:49;;;;;;;6.07;3.33;;;;;;;-143.85;100.00;70650.75;5094418;28;20039;-79
2022/08/08 05:12:14;;;;;;;3.50;2.35;;;;;;;-143.85;100.00;70650.75;5094333;28;20024;-78
2022/08/08 05:14:40;;;;;;;3.03;2.55;;;;;;;-143.85;100.00;70650.75;5094250;28;20031;-79
2022/08/08 05:17:05;;;;;;;3.45;2.30;;;;;;;-143.85;100.00;70650.75;5094214;28;20031;-80
2022/08/08 05:19:32;;;;;;;3.53;2.80;;;;;;;-143.85;100.00;70650.75;5095497;28;20027;-80
2022/08/08 05:21:58;;;;;;;3.92;2.80;;;;;;;-143.85;100.00;70650.75;5095465;28;20020;-80
2022/08/08 05:24:23;;;;;;;5.72;2.42;;;;;;;-143.85;100.00;70650.75;5094132;28;20143;-80
2022/08/08 05:26:49;;;;;;;3.00;2.08;;;;;;;-143.85;100.00;70650.75;5094144;28;20459;-82
2022/08/08 05:29:14;;;;;;;2.88;2.45;;;;;;;-143.85;100.00;70650.75;5094058;28;20020;-80
2022/08/08 05:31:40;;;;;;;3.00;2.33;;;;;;;-143.85;100.00;70650.75;5093886;28;20024;-81
2022/08/08 05:34:12;;;;;;;3.08;2.25;;;;;;;-143.85;100.00;70650.75;5093868;28;20114;-79
2022/08/08 05:36:40;;;;;;;3.08;2.42;;;;;;;-143.85;100.00;70650.75;5094227;28;20031;-80
2022/08/08 05:39:05;;;;;;;2.53;2.15;;;;;;;-143.85;100.00;70650.75;5094024;28;20536;-81
2022/08/08 05:41:34;;;;;;;3.58;2.70;;;;;;;-143.85;100.00;70650.75;5093801;28;20020;-80
2022/08/08 05:44:11;;;;;;;6.15;2.72;;;;;;;-143.85;100.00;70650.75;5093683;28;20506;-80
2022/08/08 05:46:38;;;;;;;2.90;2.40;;;;;;;-143.85;100.00;70650.75;5093695;28;20028;-80
2022/08/08 05:49:03;;;;;;;3.95;2.65;;;;;;;-143.85;100.00;70650.75;5093602;28;20055;-80
2022/08/08 05:51:29;;;;;;;3.67;2.20;;;;;;;-143.85;100.00;70650.75;5093842;28;20012;-80
2022/08/08 05:53:55;;;;;;;3.80;2.30;;;;;;;-143.85;100.00;70650.75;5093693;28;20024;-79
2022/08/08 05:56:21;;;;;;;2.83;2.13;;;;;;;-143.85;100.00;70650.75;5093609;28;20020;-79
2022/08/08 05:59:04;;;;;;;5.03;2.30;;;;;;;-143.85;100.00;70650.75;5093350;28;20032;-79
2022/08/08 06:01:30;;;;;;;3.92;2.40;;;;;;;-143.85;100.00;70650.75;5093880;28;20020;-80
2022/08/08 06:04:03;;;;;;;3.38;2.63;;;;;;;-143.85;100.00;70650.75;5093361;28;20024;-80
2022/08/08 06:06:30;;;;;;;10.20;2.75;;;;;;;-143.85;100.00;70650.75;5094035;28;20012;-80
2022/08/08 06:09:03;;;;;;;3.27;2.43;;;;;;;-143.85;100.00;70650.75;5093326;28;20131;-80
2022/08/08 06:11:32;;;;;;;2.83;1.88;;;;;;;-143.85;100.00;70650.75;5093479;28;20077;-79
2022/08/08 06:13:59;;;;;;;2.42;1.90;;;;;;;-143.85;100.00;70650.75;5093067;28;20016;-80
2022/08/08 06:16:25;;;;;;;3.83;2.10;;;;;;;-143.85;100.00;70650.75;5093098;28;20119;-79
2022/08/08 06:18:52;;;;;;;2.63;2.15;;;;;;;-143.85;100.00;70650.75;5093289;28;20023;-79
2022/08/08 06:21:19;;;;;;;3.72;1.92;;;;;;;-143.85;100.00;70650.75;5093062;28;20482;-80
2022/08/08 06:23:44;;;;;;;2.75;1.83;;;;;;;-143.85;100.00;70650.75;5094214;28;20036;-80
2022/08/08 06:26:11;;;;;;;2.25;1.73;;;;;;;-143.85;100.00;70650.75;5092718;28;20447;-81
2022/08/08 06:28:45;;;;;;;2.88;2.50;;;;;;;-143.85;100.00;70650.75;5093264;28;20016;-79
2022/08/08 06:31:16;;;;;;;3.75;1.77;;;;;;;-143.85;100.00;70650.75;5092988;28;20080;-79
2022/08/08 06:33:57;;;;;;;2.35;1.98;;;;;;;-143.85;100.00;70650.75;5092669;28;20038;-80
2022/08/08 06:36:43;;;;;;;4.70;2.70;;;;;;;-143.85;100.00;70650.75;5093241;28;20028;-80
2022/08/08 06:39:10;;;;;;;2.70;1.57;;;;;;;-143.85;100.00;70650.75;5093060;28;20020;-80
2022/08/08 06:42:13;;;;;;;3.05;2.50;;;;;;;-143.85;100.00;70650.75;5092624;28;20468;-79
2022/08/08 06:44:40;;;;;;;2.45;1.55;;;;;;;-143.85;100.00;70650.75;5011704;28;20214;-80
2022/08/08 06:47:06;;;;;;;3.05;1.95;;;;;;;-143.85;100.00;70650.75;5077433;28;20391;-80
2022/08/08 06:49:32;;;;;;;1.97;1.73;;;;;;;-143.85;100.00;70650.75;5093845;28;20035;-80
2022/08/08 06:51:59;;;;;;;1.98;1.50;;;;;;;-143.85;100.00;70650.75;5092454;28;20020;-80
2022/08/08 06:54:25;;;;;;;8.13;2.03;;;;;;;-143.85;100.00;70650.75;5092383;28;20054;-80
2022/08/08 06:56:53;;;;;;;5.32;1.80;;;;;;;-143.85;100.00;70650.75;5092236;28;20020;-80
2022/08/08 06:59:18;;;;;;;2.25;1.60;;;;;;;-143.85;100.00;70650.75;5091948;28;20030;-79
2022/08/08 07:01:51;;;;;;;1.92;1.70;;;;;;;-143.85;100.00;70650.75;5092297;28;20020;-80
2022/08/08 07:04:24;;;;;;;2.38;1.80;;;;;;;-143.85;100.00;70650.75;5093676;28;20034;-80
2022/08/08 07:06:59;;;;;;;2.45;1.67;;;;;;;-143.85;100.00;70650.75;5092143;28;20024;-81
2022/08/08 07:09:33;;;;;;;4.93;1.80;;;;;;;-143.85;100.00;70650.75;5091887;28;20027;-80
2022/08/08 07:12:01;;;;;;;2.05;1.83;;;;;;;-143.85;100.00;70650.75;5092602;28;20016;-80
2022/08/08 07:14:41;;;;;;;2.67;1.42;;;;;;;-143.85;100.00;70650.75;5093036;28;20024;-80
2022/08/08 07:17:15;;;;;;;1.70;1.60;;;;;;;-143.85;100.00;70650.75;5091377;28;20058;-81
2022/08/08 07:19:43;;;;;;;4.40;1.90;;;;;;;-143.85;100.00;70650.75;5092047;28;20028;-79
2022/08/08 07:22:11;;;;;;;2.72;1.27;;;;;;;-143.85;100.00;70650.75;5091561;28;20089;-80
2022/08/08 07:24:47;;;;;;;1.70;1.30;;;;;;;-143.85;100.00;70650.75;5093427;28;20533;-80
2022/08/08 07:27:14;;;;;;;;;;;;;;;-143.85;100.00;70650.75;5092691;28;20019;-76
2022/08/08 07:29:39;;;;;;;1.00;0.90;;;;;;;-143.85;100.00;70650.75;5091763;28;20359;-79
2022/08/08 07:32:07;;;;;;;2.78;1.10;;;;;;;-143.85;100.00;70650.75;5093320;28;20077;-80
2022/08/08 07:34:34;;;;;;;2.28;1.27;;;;;;;-143.85;100.00;70650.75;5091453;28;20024;-80
2022/08/08 07:37:02;;;;;;;2.17;1.40;;;;;;;-143.85;100.00;70650.75;5091661;28;20136;-78
2022/08/08 07:39:29;;;;;;;1.15;1.00;;;;;;;-143.85;100.00;70650.75;5092871;28;20023;-77
2022/08/08 07:41:59;;;;;;;0.77;0.77;;;;;;;-143.85;100.00;70650.75;5091606;28;20027;-78
2022/08/08 07:44:25;;;;;;;1.00;0.98;;;;;;;-143.85;100.00;70650.75;5091494;28;20019;-78
2022/08/08 07:46:51;;;;;;;0.90;0.90;;;;;;;-143.85;100.00;70650.75;5091480;28;20407;-77
2022/08/08 07:49:16;;;;;;;0.82;0.82;;;;;;;-143.85;100.00;70650.75;5091326;28;20080;-80
2022/08/08 07:51:42;;;;;;;1.27;1.03;;;;;;;-143.85;100.00;70650.75;5091521;28;20060;-79
2022/08/08 07:54:26;;;;;;;1.17;0.90;;;;;;;-143.85;100.00;70650.75;5091414;28;20020;-79
2022/08/08 07:57:02;;;;;;;0.95;0.60;;;;;;;-143.85;100.00;70650.75;5091555;28;20270;-79
2022/08/08 07:59:34;;;;;;;2.47;0.70;;;;;;;-143.85;100.00;70650.75;5091116;28;20062;-77
2022/08/08 08:02:04;;;;;;;0.95;0.85;;;;;;;-143.85;100.00;70650.75;5091577;28;20077;-77
2022/08/08 08:04:33;;;;;;;1.95;0.80;;;;;;;-143.85;100.00;70650.75;5092612;28;20024;-77
2022/08/08 08:06:59;;;;;;;0.77;0.65;;;;;;;-143.85;100.00;70650.75;5092463;28;20012;-77
2022/08/08 08:09:30;;;;;;;0.85;0.82;;;;;;;-143.85;100.00;70650.75;5091379;28;20062;-77
2022/08/08 08:11:55;;;;;;;2.05;0.80;;;;;;;-143.85;100.00;70650.75;5092562;28;20406;-77
2022/08/08 08:14:27;;;;;;;1.60;0.73;;;;;;;-143.85;100.00;70650.75;5092413;28;20023;-77
2022/08/08 08:16:52;;;;;;;1.83;0.90;;;;;;;-143.85;100.00;70650.75;5091159;28;20479;-77
2022/08/08 08:19:18;;;;;;;1.83;0.77;;;;;;;-143.85;100.00;70650.75;5091151;28;20122;-77
2022/08/08 08:21:46;;;;;;;1.92;1.35;;;;;;;-143.85;100.00;70650.75;5091331;28;20016;-77
2022/08/08 08:24:13;;;;;;;1.05;0.80;;;;;;;-143.85;100.00;70650.75;5092467;28;20032;-77
2022/08/08 08:26:38;;;;;;;1.38;1.00;;;;;;;-143.85;100.00;70650.75;5090973;28;20391;-80
2022/08/08 08:29:04;;;;;;;0.80;0.75;;;;;;;-143.85;100.00;70650.75;5092575;28;20032;-80
2022/08/08 08:31:31;;;;;;;1.65;1.00;;;;;;;-143.85;100.00;70650.75;5095063;28;20027;-80
2022/08/08 08:33:56;;;;;;;1.20;1.00;;;;;;;-143.85;100.00;70650.75;5095181;28;20020;-79
2022/08/08 08:36:23;;;;;;;1.52;0.98;;;;;;;-143.85;100.00;70650.75;5095122;28;20016;-80
2022/08/08 08:38:49;;;;;;;3.33;0.63;;;;;;;-143.85;100.00;70650.75;5096298;28;20077;-79
2022/08/08 08:41:17;;;;;;;1.90;0.63;;;;;;;-143.85;100.00;70650.75;5094832;28;20266;-80
2022/08/08 08:43:45;;;;;;;1.40;0.98;;;;;;;-143.85;100.00;70650.75;5094969;28;20050;-79
2022/08/08 08:46:11;;;;;;;1.58;1.02;;;;;;;-143.85;100.00;70650.75;5096193;28;20059;-79
2022/08/08 08:48:40;;;;;;;2.37;1.17;;;;;;;-143.85;100.00;70650.75;5094633;28;20071;-79
2022/08/08 08:51:14;;;;;;;1.05;0.70;;;;;;;-143.85;100.00;70650.75;5094877;28;20055;-79
2022/08/08 08:53:47;;;;;;;0.88;0.60;;;;;;;-143.85;100.00;70650.75;5094711;28;20069;-80
2022/08/08 08:56:15;;;;;;;1.00;0.90;;;;;;;-143.85;100.00;70650.75;5094666;28;20020;-79
2022/08/08 08:58:46;;;;;;;1.23;0.80;;;;;;;-143.85;100.00;70650.75;5094620;28;20173;-79
2022/08/08 09:01:15;;;;;;;6.97;1.17;;;;;;;-143.85;100.00;70650.75;5094596;28;20028;-79
2022/08/08 09:03:43;;;;;;;1.02;0.70;;;;;;;-143.85;100.00;70650.75;5094675;28;20051;-79
2022/08/08 09:06:10;;;;;;;2.45;1.00;;;;;;;-143.85;100.00;70650.75;5095996;28;20027;-79
2022/08/08 09:08:40;;;;;;;0.55;0.55;;;;;;;-143.85;100.00;70650.75;5094509;28;20024;-80
2022/08/08 09:11:07;;;;;;;2.30;1.00;;;;;;;-143.85;100.00;70650.75;5094798;28;20158;-79
2022/08/08 09:13:37;;;;;;;2.28;1.17;;;;;;;-143.85;100.00;70650.75;5094347;28;20028;-79
2022/08/08 09:16:03;;;;;;;2.70;0.88;;;;;;;-143.85;100.00;70650.75;5094457;28;20042;-80
2022/08/08 09:18:32;;;;;;;2.25;0.90;;;;;;;-143.85;100.00;70650.75;5094197;28;20028;-80
2022/08/08 09:21:00;;;;;;;2.33;1.40;;;;;;;-143.85;100.00;70650.75;5094273;28;20020;-80
2022/08/08 09:23:27;;;;;;;;;;;;;;;-143.85;100.00;70650.75;5096099;28;20027;-79
2022/08/08 09:26:12;;;;;;;4.00;1.27;;;;;;;-143.85;100.00;70650.75;5094031;28;19904;-79
2022/08/08 09:28:39;;;;;;;1.40;0.93;;;;;;;-143.85;100.00;70650.75;5094129;28;20030;-80
2022/08/08 09:31:19;;;;;;;1.58;0.73;;;;;;;-143.85;100.00;70650.75;5095259;28;20047;-79
2022/08/08 09:33:50;;;;;;;3.70;0.98;;;;;;;-143.85;100.00;70650.75;5094345;28;20172;-81
2022/08/08 09:36:22;;;;;;;1.20;0.85;;;;;;;-143.85;100.00;70650.75;5094142;28;20020;-79
2022/08/08 09:38:58;;;;;;;0.80;0.80;;;;;;;-143.85;100.00;70650.75;5094095;28;20046;-79
2022/08/08 09:41:37;;;;;;;3.53;1.20;;;;;;;-143.85;100.00;70650.75;5092909;28;20115;-79
2022/08/08 09:44:27;;;;;;;1.23;0.90;;;;;;;-143.85;100.00;70650.75;5093776;28;20507;-79
2022/08/08 09:46:55;;;;;;;1.25;0.95;;;;;;;-143.85;100.00;70650.75;5094941;28;20493;-79
2022/08/08 09:49:21;;;;;;;0.90;0.90;;;;;;;-143.85;100.00;70650.75;5093779;28;20078;-79
2022/08/08 09:51:52;;;;;;;4.90;0.80;;;;;;;-143.85;100.00;70650.75;5094883;28;20032;-79
2022/08/08 09:54:24;;;;;;;1.63;0.70;;;;;;;-143.85;100.00;70650.75;5093539;28;20110;-79
2022/08/08 09:56:54;;;;;;;2.47;1.10;;;;;;;-143.85;100.00;70650.75;5094177;28;20020;-79
2022/08/08 09:59:25;;;;;;;3.60;1.10;;;;;;;-143.85;100.00;70650.75;5095012;28;20463;-80
2022/08/08 10:01:52;;;;;;;4.43;0.95;;;;;;;-143.85;100.00;70650.75;5093599;28;20059;-80
2022/08/08 10:04:21;;;;;;;1.88;1.42;;;;;;;-143.85;100.00;70650.75;5093391;28;20024;-80
2022/08/08 10:06:47;;;;;;;1.00;0.70;;;;;;;-143.85;100.00;70650.75;5093559;28;20016;-79
2022/08/08 10:09:13;;;;;;;3.42;0.90;;;;;;;-143.85;100.00;70650.75;5093349;28;20441;-79
2022/08/08 10:11:46;;;;;;;2.95;0.85;;;;;;;-143.85;100.00;70650.75;5094562;28;20022;-80
2022/08/08 10:14:12;;;;;;;1.40;0.85;;;;;;;-143.85;100.00;70650.75;5093550;28;20030;-81
2022/08/08 10:16:40;;;;;;;1.38;1.05;;;;;;;-143.85;100.00;70650.75;5093165;28;20417;-81
2022/08/08 10:19:07;;;;;;;1.98;0.80;;;;;;;-143.85;100.00;70650.75;5093036;28;20035;-80
2022/08/08 10:21:34;;;;;;;1.23;0.80;;;;;;;-143.85;100.00;70650.75;5094359;28;20024;-80
2022/08/08 10:24:06;;;;;;;0.73;0.70;;;;;;;-143.85;100.00;70650.75;5094138;28;20028;-80
2022/08/08 10:26:37;;;;;;;1.27;0.80;;;;;;;-143.85;100.00;70650.75;5093305;28;20046;-80
2022/08/08 10:29:06;;;;;;;7.03;1.00;;;;;;;-143.85;100.00;70650.75;5092966;28;20024;-80
2022/08/08 10:34:19;;;;;;;1.67;0.90;;;;;;;-143.85;100.00;70650.75;5094106;28;20094;-80
2022/08/08 10:36:45;;;;;;;3.38;1.05;;;;;;;-143.85;100.00;70650.75;5092734;28;20027;-80
2022/08/08 10:39:23;;;;;;;0.52;0.52;;;;;;;-143.85;100.00;70650.75;5092845;28;20035;-81
2022/08/08 10:42:04;;;;;;;1.80;0.68;;;;;;;-143.85;100.00;70650.75;5092762;28;20031;-79
2022/08/08 10:44:39;;;;;;;1.15;0.77;;;;;;;-143.85;100.00;70650.75;5092604;28;20116;-82
2022/08/08 10:47:12;;;;;;;2.45;0.95;;;;;;;-143.85;100.00;70650.75;5092784;28;20078;-82
2022/08/08 10:49:40;;;;;;;1.80;0.75;;;;;;;-143.85;100.00;70650.75;5092528;28;20028;-82
2022/08/08 10:52:05;;;;;;;1.23;1.00;;;;;;;-143.85;100.00;70650.75;5093605;28;20032;-82
2022/08/08 10:54:31;;;;;;;1.52;0.85;;;;;;;-143.85;100.00;70650.75;5092290;28;20046;-80
2022/08/08 10:57:02;;;;;;;1.45;0.93;;;;;;;-143.85;100.00;70650.75;5092382;28;20031;-79
2022/08/08 10:59:29;;;;;;;1.23;1.00;;;;;;;-143.85;100.00;70650.75;5093187;28;20040;-80
2022/08/08 11:01:54;;;;;;;1.98;0.80;;;;;;;-143.85;100.00;70650.75;5092535;28;20031;-80
2022/08/08 11:04:21;;;;;;;0.98;0.70;;;;;;;-143.85;100.00;70650.75;5092272;28;20541;-81
2022/08/08 11:06:46;;;;;;;0.60;0.60;;;;;;;-143.85;100.00;70650.75;5092189;28;20396;-80
2022/08/08 11:09:12;;;;;;;1.63;0.82;;;;;;;-143.85;100.00;70650.75;5092189;28;20020;-81
2022/08/08 11:11:44;;;;;;;1.55;0.80;;;;;;;-143.85;100.00;70650.75;5092535;28;20043;-80
2022/08/08 11:14:13;;;;;;;0.68;0.68;;;;;;;-143.85;100.00;70650.75;5093468;28;20020;-81
2022/08/08 11:16:44;;;;;;;0.57;0.57;;;;;;;-143.85;100.00;70650.75;5092083;28;20030;-81
2022/08/08 11:19:10;;;;;;;0.50;0.50;;;;;;;-143.85;100.00;70650.75;5093634;28;20513;-80
2022/08/08 11:21:44;;;;;;;2.30;0.95;;;;;;;-143.85;100.00;70650.75;5093415;28;20057;-82
2022/08/08 11:24:10;;;;;;;15.27;2.67;;;;;;;-143.85;100.00;70650.75;5092171;28;20475;-80
2022/08/08 11:26:42;;;;;;;2.03;1.52;;;;;;;-143.85;100.00;70650.75;5092005;28;20070;-81
2022/08/08 11:29:08;;;;;;;0.95;0.90;;;;;;;-143.85;100.00;70650.75;5093214;28;20016;-81
2022/08/08 11:31:47;;;;;;;3.70;1.02;;;;;;;-143.85;100.00;70650.75;5091722;28;20028;-80
2022/08/08 11:34:16;;;;;;;1.80;0.98;;;;;;;-143.85;100.00;70650.75;5092004;28;20028;-82
2022/08/08 11:36:42;;;;;;;4.00;1.10;;;;;;;-143.85;100.00;70650.75;5092997;28;20494;-81
2022/08/08 11:39:10;;;;;;;1.58;0.68;;;;;;;-143.85;100.00;70650.75;5092032;28;20021;-80
2022/08/08 11:41:36;;;;;;;0.70;0.70;;;;;;;-143.85;100.00;70650.75;5092925;28;20024;-81
2022/08/08 11:44:04;;;;;;;1.05;0.77;;;;;;;-143.85;100.00;70650.75;5091653;28;20391;-81
2022/08/08 11:46:33;;;;;;;1.75;1.08;;;;;;;-143.85;100.00;70650.75;5092680;28;20446;-81